sensor_id;sensor_type;location;lat;lon;timestamp;P1;durP1;ratioP1;P2;durP2;ratioP2
55220;SDS011;41089;51.448;6.604;2023-02-19T00:00:59;14.07;;;12.48;;
55220;SDS011;41089;51.448;6.604;2023-02-19T00:07:00;12.85;;;11.55;;
55220;SDS011;41089;51.448;6.604;2023-02-19T00:13:00;15.97;;;14.37;;
55220;SDS011;41089;51.448;6.604;2023-02-19T00:19:02;14.73;;;13.23;;
55220;SDS011;41089;51.448;6.604;2023-02-19T00:25:03;15.40;;;13.77;;
55220;SDS011;41089;51.448;6.604;2023-02-19T00:31:05;14.80;;;13.20;;
55220;SDS011;41089;51.448;6.604;2023-02-19T00:37:15;14.30;;;12.80;;
55220;SDS011;41089;51.448;6.604;2023-02-19T00:43:16;17.00;;;13.93;;
55220;SDS011;41089;51.448;6.604;2023-02-19T00:49:20;15.48;;;13.25;;
55220;SDS011;41089;51.448;6.604;2023-02-19T00:55:21;15.60;;;12.93;;
55220;SDS011;41089;51.448;6.604;2023-02-19T01:01:22;16.50;;;14.07;;
55220;SDS011;41089;51.448;6.604;2023-02-19T01:07:22;21.83;;;15.57;;
55220;SDS011;41089;51.448;6.604;2023-02-19T01:13:23;20.15;;;15.68;;
55220;SDS011;41089;51.448;6.604;2023-02-19T01:19:23;20.08;;;15.90;;
55220;SDS011;41089;51.448;6.604;2023-02-19T01:25:24;24.53;;;17.43;;
55220;SDS011;41089;51.448;6.604;2023-02-19T01:31:25;20.27;;;15.95;;
55220;SDS011;41089;51.448;6.604;2023-02-19T01:37:25;19.38;;;15.70;;
55220;SDS011;41089;51.448;6.604;2023-02-19T01:43:26;25.70;;;16.95;;
55220;SDS011;41089;51.448;6.604;2023-02-19T01:49:27;23.67;;;16.15;;
55220;SDS011;41089;51.448;6.604;2023-02-19T01:55:30;24.25;;;17.15;;
55220;SDS011;41089;51.448;6.604;2023-02-19T02:01:31;24.05;;;17.45;;
55220;SDS011;41089;51.448;6.604;2023-02-19T02:07:31;24.83;;;17.15;;
55220;SDS011;41089;51.448;6.604;2023-02-19T02:13:50;24.73;;;17.40;;
55220;SDS011;41089;51.448;6.604;2023-02-19T02:32:26;25.75;;;17.05;;
55220;SDS011;41089;51.448;6.604;2023-02-19T02:38:34;24.98;;;16.25;;
55220;SDS011;41089;51.448;6.604;2023-02-19T02:44:36;22.65;;;15.52;;
55220;SDS011;41089;51.448;6.604;2023-02-19T02:50:41;22.13;;;14.98;;
55220;SDS011;41089;51.448;6.604;2023-02-19T02:56:45;18.75;;;12.43;;
55220;SDS011;41089;51.448;6.604;2023-02-19T03:02:47;18.00;;;12.38;;
55220;SDS011;41089;51.448;6.604;2023-02-19T03:08:56;16.05;;;11.77;;
55220;SDS011;41089;51.448;6.604;2023-02-19T03:15:18;18.80;;;11.15;;
55220;SDS011;41089;51.448;6.604;2023-02-19T03:21:37;17.05;;;10.68;;
55220;SDS011;41089;51.448;6.604;2023-02-19T03:27:40;17.98;;;10.60;;
55220;SDS011;41089;51.448;6.604;2023-02-19T03:33:41;16.50;;;10.13;;
55220;SDS011;41089;51.448;6.604;2023-02-19T03:39:42;14.50;;;9.63;;
55220;SDS011;41089;51.448;6.604;2023-02-19T03:51:49;13.55;;;7.65;;
55220;SDS011;41089;51.448;6.604;2023-02-19T03:58:04;15.50;;;8.02;;
55220;SDS011;41089;51.448;6.604;2023-02-19T04:04:24;14.48;;;8.20;;
55220;SDS011;41089;51.448;6.604;2023-02-19T04:10:27;15.68;;;9.43;;
55220;SDS011;41089;51.448;6.604;2023-02-19T04:16:28;15.82;;;9.80;;
55220;SDS011;41089;51.448;6.604;2023-02-19T04:22:29;16.45;;;8.82;;
55220;SDS011;41089;51.448;6.604;2023-02-19T04:28:30;18.08;;;9.48;;
55220;SDS011;41089;51.448;6.604;2023-02-19T04:34:30;15.90;;;8.90;;
55220;SDS011;41089;51.448;6.604;2023-02-19T04:40:31;19.80;;;8.27;;
55220;SDS011;41089;51.448;6.604;2023-02-19T04:46:31;16.93;;;8.50;;
55220;SDS011;41089;51.448;6.604;2023-02-19T04:52:31;16.15;;;7.80;;
55220;SDS011;41089;51.448;6.604;2023-02-19T04:58:32;20.27;;;9.23;;
55220;SDS011;41089;51.448;6.604;2023-02-19T05:04:33;22.55;;;9.95;;
55220;SDS011;41089;51.448;6.604;2023-02-19T05:10:33;20.50;;;9.33;;
55220;SDS011;41089;51.448;6.604;2023-02-19T05:16:34;16.45;;;7.30;;
55220;SDS011;41089;51.448;6.604;2023-02-19T05:22:34;19.73;;;7.88;;
55220;SDS011;41089;51.448;6.604;2023-02-19T05:28:34;19.77;;;7.97;;
55220;SDS011;41089;51.448;6.604;2023-02-19T05:34:35;19.48;;;8.52;;
55220;SDS011;41089;51.448;6.604;2023-02-19T05:40:35;20.75;;;8.18;;
55220;SDS011;41089;51.448;6.604;2023-02-19T05:46:36;23.63;;;8.07;;
55220;SDS011;41089;51.448;6.604;2023-02-19T05:52:36;17.17;;;7.57;;
55220;SDS011;41089;51.448;6.604;2023-02-19T05:58:38;20.42;;;8.32;;
55220;SDS011;41089;51.448;6.604;2023-02-19T06:04:38;21.33;;;8.30;;
55220;SDS011;41089;51.448;6.604;2023-02-19T06:10:38;18.25;;;6.80;;
55220;SDS011;41089;51.448;6.604;2023-02-19T06:16:40;18.23;;;7.50;;
55220;SDS011;41089;51.448;6.604;2023-02-19T06:22:41;14.77;;;6.65;;
55220;SDS011;41089;51.448;6.604;2023-02-19T06:28:41;13.27;;;6.38;;
55220;SDS011;41089;51.448;6.604;2023-02-19T06:34:42;17.05;;;6.60;;
55220;SDS011;41089;51.448;6.604;2023-02-19T06:40:42;16.65;;;6.80;;
55220;SDS011;41089;51.448;6.604;2023-02-19T06:46:43;12.37;;;5.40;;
55220;SDS011;41089;51.448;6.604;2023-02-19T06:52:43;17.70;;;6.30;;
55220;SDS011;41089;51.448;6.604;2023-02-19T06:58:43;17.15;;;6.47;;
55220;SDS011;41089;51.448;6.604;2023-02-19T07:04:44;17.20;;;7.38;;
55220;SDS011;41089;51.448;6.604;2023-02-19T07:10:44;15.43;;;7.80;;
55220;SDS011;41089;51.448;6.604;2023-02-19T07:16:45;18.77;;;8.10;;
55220;SDS011;41089;51.448;6.604;2023-02-19T07:22:46;19.08;;;8.38;;
55220;SDS011;41089;51.448;6.604;2023-02-19T07:28:47;19.33;;;7.57;;
55220;SDS011;41089;51.448;6.604;2023-02-19T07:34:49;13.77;;;7.28;;
55220;SDS011;41089;51.448;6.604;2023-02-19T07:40:56;14.43;;;7.40;;
55220;SDS011;41089;51.448;6.604;2023-02-19T07:46:57;18.70;;;8.60;;
55220;SDS011;41089;51.448;6.604;2023-02-19T07:52:58;14.50;;;7.38;;
55220;SDS011;41089;51.448;6.604;2023-02-19T07:58:59;13.68;;;7.15;;
55220;SDS011;41089;51.448;6.604;2023-02-19T08:05:00;17.70;;;8.13;;
55220;SDS011;41089;51.448;6.604;2023-02-19T08:11:01;13.00;;;6.93;;
55220;SDS011;41089;51.448;6.604;2023-02-19T08:17:20;19.50;;;7.27;;
55220;SDS011;41089;51.448;6.604;2023-02-19T08:23:21;16.47;;;7.10;;
55220;SDS011;41089;51.448;6.604;2023-02-19T08:29:22;17.35;;;8.27;;
55220;SDS011;41089;51.448;6.604;2023-02-19T08:35:22;15.47;;;8.17;;
55220;SDS011;41089;51.448;6.604;2023-02-19T08:41:23;14.98;;;7.03;;
55220;SDS011;41089;51.448;6.604;2023-02-19T08:47:23;18.27;;;7.70;;
55220;SDS011;41089;51.448;6.604;2023-02-19T08:53:24;20.00;;;7.20;;
55220;SDS011;41089;51.448;6.604;2023-02-19T08:59:27;15.35;;;6.68;;
55220;SDS011;41089;51.448;6.604;2023-02-19T09:05:28;22.85;;;8.23;;
55220;SDS011;41089;51.448;6.604;2023-02-19T09:11:28;18.10;;;7.07;;
55220;SDS011;41089;51.448;6.604;2023-02-19T09:17:28;16.23;;;7.17;;
55220;SDS011;41089;51.448;6.604;2023-02-19T09:23:29;14.60;;;6.35;;
55220;SDS011;41089;51.448;6.604;2023-02-19T09:29:31;12.40;;;6.28;;
55220;SDS011;41089;51.448;6.604;2023-02-19T09:35:33;9.25;;;5.35;;
55220;SDS011;41089;51.448;6.604;2023-02-19T09:41:38;12.10;;;5.37;;
55220;SDS011;41089;51.448;6.604;2023-02-19T09:47:45;8.95;;;5.70;;
55220;SDS011;41089;51.448;6.604;2023-02-19T09:53:46;10.98;;;5.97;;
55220;SDS011;41089;51.448;6.604;2023-02-19T09:59:51;8.68;;;5.65;;
55220;SDS011;41089;51.448;6.604;2023-02-19T10:05:53;9.20;;;5.72;;
55220;SDS011;41089;51.448;6.604;2023-02-19T10:11:55;9.20;;;7.30;;
55220;SDS011;41089;51.448;6.604;2023-02-19T10:17:57;13.82;;;5.90;;
55220;SDS011;41089;51.448;6.604;2023-02-19T10:23:58;15.02;;;7.45;;
55220;SDS011;41089;51.448;6.604;2023-02-19T10:30:00;13.60;;;6.70;;
55220;SDS011;41089;51.448;6.604;2023-02-19T10:36:02;12.83;;;6.83;;
55220;SDS011;41089;51.448;6.604;2023-02-19T10:42:04;12.38;;;6.03;;
55220;SDS011;41089;51.448;6.604;2023-02-19T10:48:05;9.65;;;6.32;;
55220;SDS011;41089;51.448;6.604;2023-02-19T10:54:19;11.10;;;7.60;;
55220;SDS011;41089;51.448;6.604;2023-02-19T11:06:25;8.98;;;5.93;;
55220;SDS011;41089;51.448;6.604;2023-02-19T11:12:28;6.55;;;4.65;;
55220;SDS011;41089;51.448;6.604;2023-02-19T11:18:30;8.90;;;5.47;;
55220;SDS011;41089;51.448;6.604;2023-02-19T11:24:32;5.47;;;4.32;;
55220;SDS011;41089;51.448;6.604;2023-02-19T11:30:39;7.15;;;5.32;;
55220;SDS011;41089;51.448;6.604;2023-02-19T11:36:43;5.32;;;4.70;;
55220;SDS011;41089;51.448;6.604;2023-02-19T11:48:52;4.50;;;3.53;;
55220;SDS011;41089;51.448;6.604;2023-02-19T12:26:27;2.65;;;2.08;;
55220;SDS011;41089;51.448;6.604;2023-02-19T12:45:06;4.88;;;3.05;;
55220;SDS011;41089;51.448;6.604;2023-02-19T12:57:38;4.10;;;2.45;;
55220;SDS011;41089;51.448;6.604;2023-02-19T13:10:24;7.72;;;3.75;;
55220;SDS011;41089;51.448;6.604;2023-02-19T13:16:25;9.27;;;5.97;;
55220;SDS011;41089;51.448;6.604;2023-02-19T13:22:38;18.40;;;14.10;;
55220;SDS011;41089;51.448;6.604;2023-02-19T13:41:53;9.55;;;5.53;;
55220;SDS011;41089;51.448;6.604;2023-02-19T13:53:59;11.35;;;9.52;;
55220;SDS011;41089;51.448;6.604;2023-02-19T14:00:00;10.75;;;6.35;;
55220;SDS011;41089;51.448;6.604;2023-02-19T14:06:02;8.75;;;6.70;;
55220;SDS011;41089;51.448;6.604;2023-02-19T14:24:59;11.52;;;7.55;;
55220;SDS011;41089;51.448;6.604;2023-02-19T14:43:21;10.98;;;7.93;;
55220;SDS011;41089;51.448;6.604;2023-02-19T14:55:34;15.23;;;8.93;;
55220;SDS011;41089;51.448;6.604;2023-02-19T15:01:36;17.85;;;13.23;;
55220;SDS011;41089;51.448;6.604;2023-02-19T15:07:37;16.38;;;13.98;;
55220;SDS011;41089;51.448;6.604;2023-02-19T15:13:40;13.52;;;9.00;;
55220;SDS011;41089;51.448;6.604;2023-02-19T15:19:44;19.90;;;9.55;;
55220;SDS011;41089;51.448;6.604;2023-02-19T15:25:45;10.90;;;7.60;;
55220;SDS011;41089;51.448;6.604;2023-02-19T15:31:49;10.35;;;6.85;;
55220;SDS011;41089;51.448;6.604;2023-02-19T15:37:51;6.05;;;5.00;;
55220;SDS011;41089;51.448;6.604;2023-02-19T15:43:54;7.88;;;5.63;;
55220;SDS011;41089;51.448;6.604;2023-02-19T15:50:03;8.20;;;4.75;;
55220;SDS011;41089;51.448;6.604;2023-02-19T16:02:38;3.88;;;2.30;;
55220;SDS011;41089;51.448;6.604;2023-02-19T16:08:39;2.30;;;2.10;;
55220;SDS011;41089;51.448;6.604;2023-02-19T16:15:10;3.13;;;2.80;;
55220;SDS011;41089;51.448;6.604;2023-02-19T16:21:14;3.05;;;2.17;;
55220;SDS011;41089;51.448;6.604;2023-02-19T16:27:33;4.40;;;2.30;;
55220;SDS011;41089;51.448;6.604;2023-02-19T16:33:41;2.67;;;2.40;;
55220;SDS011;41089;51.448;6.604;2023-02-19T16:39:43;4.40;;;2.97;;
55220;SDS011;41089;51.448;6.604;2023-02-19T16:45:43;4.10;;;3.30;;
55220;SDS011;41089;51.448;6.604;2023-02-19T16:51:44;3.97;;;3.53;;
55220;SDS011;41089;51.448;6.604;2023-02-19T16:57:45;6.43;;;4.38;;
55220;SDS011;41089;51.448;6.604;2023-02-19T17:03:46;8.50;;;4.63;;
55220;SDS011;41089;51.448;6.604;2023-02-19T17:09:46;6.35;;;5.03;;
55220;SDS011;41089;51.448;6.604;2023-02-19T17:15:47;9.77;;;4.70;;
55220;SDS011;41089;51.448;6.604;2023-02-19T17:21:47;5.43;;;4.93;;
55220;SDS011;41089;51.448;6.604;2023-02-19T17:27:48;5.90;;;4.80;;
55220;SDS011;41089;51.448;6.604;2023-02-19T17:33:48;6.70;;;6.10;;
55220;SDS011;41089;51.448;6.604;2023-02-19T17:39:49;7.45;;;6.85;;
55220;SDS011;41089;51.448;6.604;2023-02-19T17:45:49;7.88;;;7.07;;
55220;SDS011;41089;51.448;6.604;2023-02-19T17:51:50;10.52;;;7.15;;
55220;SDS011;41089;51.448;6.604;2023-02-19T17:57:51;8.23;;;7.43;;
55220;SDS011;41089;51.448;6.604;2023-02-19T18:03:51;8.98;;;7.80;;
55220;SDS011;41089;51.448;6.604;2023-02-19T18:09:51;8.80;;;7.43;;
55220;SDS011;41089;51.448;6.604;2023-02-19T18:15:52;7.03;;;6.33;;
55220;SDS011;41089;51.448;6.604;2023-02-19T18:21:52;5.80;;;5.30;;
55220;SDS011;41089;51.448;6.604;2023-02-19T18:27:53;8.10;;;6.73;;
55220;SDS011;41089;51.448;6.604;2023-02-19T18:33:53;7.15;;;6.53;;
55220;SDS011;41089;51.448;6.604;2023-02-19T18:39:54;6.10;;;5.47;;
55220;SDS011;41089;51.448;6.604;2023-02-19T18:45:54;6.30;;;5.35;;
55220;SDS011;41089;51.448;6.604;2023-02-19T18:51:55;6.18;;;5.53;;
55220;SDS011;41089;51.448;6.604;2023-02-19T18:57:55;6.25;;;5.47;;
55220;SDS011;41089;51.448;6.604;2023-02-19T19:03:56;7.15;;;5.85;;
55220;SDS011;41089;51.448;6.604;2023-02-19T19:09:56;6.77;;;6.10;;
55220;SDS011;41089;51.448;6.604;2023-02-19T19:15:56;6.00;;;5.37;;
55220;SDS011;41089;51.448;6.604;2023-02-19T19:21:57;6.18;;;5.15;;
55220;SDS011;41089;51.448;6.604;2023-02-19T19:27:57;6.33;;;5.70;;
55220;SDS011;41089;51.448;6.604;2023-02-19T19:33:57;5.82;;;5.20;;
55220;SDS011;41089;51.448;6.604;2023-02-19T19:39:58;6.40;;;5.80;;
55220;SDS011;41089;51.448;6.604;2023-02-19T19:45:58;6.68;;;5.75;;
55220;SDS011;41089;51.448;6.604;2023-02-19T19:51:59;8.73;;;7.93;;
55220;SDS011;41089;51.448;6.604;2023-02-19T19:58:00;10.05;;;7.22;;
55220;SDS011;41089;51.448;6.604;2023-02-19T20:04:00;8.10;;;7.30;;
55220;SDS011;41089;51.448;6.604;2023-02-19T20:10:00;7.00;;;6.30;;
55220;SDS011;41089;51.448;6.604;2023-02-19T20:16:01;7.78;;;4.82;;
55220;SDS011;41089;51.448;6.604;2023-02-19T20:22:01;4.07;;;3.30;;
55220;SDS011;41089;51.448;6.604;2023-02-19T20:28:02;3.77;;;2.97;;
55220;SDS011;41089;51.448;6.604;2023-02-19T20:34:02;3.40;;;2.38;;
55220;SDS011;41089;51.448;6.604;2023-02-19T20:40:03;2.67;;;2.08;;
55220;SDS011;41089;51.448;6.604;2023-02-19T20:46:04;2.47;;;1.95;;
55220;SDS011;41089;51.448;6.604;2023-02-19T20:52:05;5.25;;;2.30;;
55220;SDS011;41089;51.448;6.604;2023-02-19T20:58:06;2.42;;;2.22;;
55220;SDS011;41089;51.448;6.604;2023-02-19T21:04:06;2.42;;;1.95;;
55220;SDS011;41089;51.448;6.604;2023-02-19T21:10:07;2.57;;;2.37;;
55220;SDS011;41089;51.448;6.604;2023-02-19T21:16:08;3.50;;;2.22;;
55220;SDS011;41089;51.448;6.604;2023-02-19T21:22:08;5.20;;;2.60;;
55220;SDS011;41089;51.448;6.604;2023-02-19T21:28:08;3.13;;;2.20;;
55220;SDS011;41089;51.448;6.604;2023-02-19T21:34:10;2.55;;;1.88;;
55220;SDS011;41089;51.448;6.604;2023-02-19T21:40:12;3.60;;;2.45;;
55220;SDS011;41089;51.448;6.604;2023-02-19T21:46:16;5.28;;;3.42;;
55220;SDS011;41089;51.448;6.604;2023-02-19T21:52:17;4.43;;;2.30;;
55220;SDS011;41089;51.448;6.604;2023-02-19T21:58:18;3.60;;;1.93;;
55220;SDS011;41089;51.448;6.604;2023-02-19T22:04:19;5.28;;;1.80;;
55220;SDS011;41089;51.448;6.604;2023-02-19T22:10:20;4.40;;;2.10;;
55220;SDS011;41089;51.448;6.604;2023-02-19T22:16:20;4.78;;;2.33;;
55220;SDS011;41089;51.448;6.604;2023-02-19T22:22:21;2.22;;;2.03;;
55220;SDS011;41089;51.448;6.604;2023-02-19T22:28:21;2.50;;;2.10;;
55220;SDS011;41089;51.448;6.604;2023-02-19T22:34:22;2.50;;;2.03;;
55220;SDS011;41089;51.448;6.604;2023-02-19T22:40:22;1.70;;;1.60;;
55220;SDS011;41089;51.448;6.604;2023-02-19T22:46:23;4.63;;;2.40;;
55220;SDS011;41089;51.448;6.604;2023-02-19T22:52:25;4.35;;;2.38;;
55220;SDS011;41089;51.448;6.604;2023-02-19T22:58:27;3.80;;;2.35;;
55220;SDS011;41089;51.448;6.604;2023-02-19T23:04:27;4.28;;;2.70;;
55220;SDS011;41089;51.448;6.604;2023-02-19T23:10:27;3.13;;;2.67;;
55220;SDS011;41089;51.448;6.604;2023-02-19T23:16:28;5.22;;;3.08;;
55220;SDS011;41089;51.448;6.604;2023-02-19T23:22:28;4.20;;;3.13;;
55220;SDS011;41089;51.448;6.604;2023-02-19T23:28:28;6.00;;;3.70;;
55220;SDS011;41089;51.448;6.604;2023-02-19T23:34:29;6.77;;;4.30;;
55220;SDS011;41089;51.448;6.604;2023-02-19T23:40:29;4.32;;;3.90;;
55220;SDS011;41089;51.448;6.604;2023-02-19T23:46:30;7.88;;;5.78;;
55220;SDS011;41089;51.448;6.604;2023-02-19T23:52:31;9.18;;;6.32;;
55220;SDS011;41089;51.448;6.604;2023-02-19T23:58:31;12.25;;;5.63;;
